sensor_id;sensor_type;location;lat;lon;timestamp;pressure;altitude;pressure_sealevel;temperature;humidity
69624;BME280;56843;52.020;5.670;2022-12-15T00:00:04;100451.75;;;-8.10;88.24
69624;BME280;56843;52.020;5.670;2022-12-15T00:01:53;100446.81;;;-8.12;87.68
69624;BME280;56843;52.020;5.670;2022-12-15T00:03:43;100448.59;;;-8.12;88.02
69624;BME280;56843;52.020;5.670;2022-12-15T00:05:32;100443.41;;;-8.12;87.86
69624;BME280;56843;52.020;5.670;2022-12-15T00:07:21;100453.19;;;-8.14;88.23
69624;BME280;56843;52.020;5.670;2022-12-15T00:09:10;100449.22;;;-8.17;87.83
69624;BME280;56843;52.020;5.670;2022-12-15T00:11:01;100453.00;;;-8.19;88.19
69624;BME280;56843;52.020;5.670;2022-12-15T00:12:50;100452.22;;;-8.20;88.03
69624;BME280;56843;52.020;5.670;2022-12-15T00:14:39;100442.66;;;-8.19;88.32
69624;BME280;56843;52.020;5.670;2022-12-15T00:16:28;100450.22;;;-8.18;88.40
69624;BME280;56843;52.020;5.670;2022-12-15T00:18:17;100443.81;;;-8.15;88.47
69624;BME280;56843;52.020;5.670;2022-12-15T00:20:06;100440.66;;;-8.17;88.04
69624;BME280;56843;52.020;5.670;2022-12-15T00:21:55;100446.84;;;-8.18;88.30
69624;BME280;56843;52.020;5.670;2022-12-15T00:23:44;100449.22;;;-8.17;88.47
69624;BME280;56843;52.020;5.670;2022-12-15T00:25:33;100451.41;;;-8.14;88.27
69624;BME280;56843;52.020;5.670;2022-12-15T00:27:22;100453.56;;;-8.11;88.30
69624;BME280;56843;52.020;5.670;2022-12-15T00:29:11;100458.53;;;-8.09;88.38
69624;BME280;56843;52.020;5.670;2022-12-15T00:31:00;100464.72;;;-8.10;88.15
69624;BME280;56843;52.020;5.670;2022-12-15T00:32:50;100464.13;;;-8.12;88.26
69624;BME280;56843;52.020;5.670;2022-12-15T00:34:39;100452.97;;;-8.13;88.68
69624;BME280;56843;52.020;5.670;2022-12-15T00:36:28;100448.59;;;-8.12;88.40
69624;BME280;56843;52.020;5.670;2022-12-15T00:38:17;100458.94;;;-8.12;88.33
69624;BME280;56843;52.020;5.670;2022-12-15T00:40:06;100459.75;;;-8.12;88.44
69624;BME280;56843;52.020;5.670;2022-12-15T00:41:37;100466.72;;;-8.12;88.37
69624;BME280;56843;52.020;5.670;2022-12-15T00:43:07;100461.94;;;-8.15;88.71
69624;BME280;56843;52.020;5.670;2022-12-15T00:44:41;100460.97;;;-8.14;88.44
69624;BME280;56843;52.020;5.670;2022-12-15T00:46:11;100460.38;;;-8.16;88.45
69624;BME280;56843;52.020;5.670;2022-12-15T00:48:00;100454.63;;;-8.18;88.65
69624;BME280;56843;52.020;5.670;2022-12-15T00:49:31;100456.63;;;-8.20;88.87
69624;BME280;56843;52.020;5.670;2022-12-15T00:51:20;100450.63;;;-8.21;88.70
69624;BME280;56843;52.020;5.670;2022-12-15T00:52:51;100460.41;;;-8.23;88.83
69624;BME280;56843;52.020;5.670;2022-12-15T00:54:40;100453.84;;;-8.26;88.98
69624;BME280;56843;52.020;5.670;2022-12-15T00:56:29;100467.78;;;-8.27;89.01
69624;BME280;56843;52.020;5.670;2022-12-15T00:58:18;100464.63;;;-8.29;89.11
69624;BME280;56843;52.020;5.670;2022-12-15T01:00:08;100466.63;;;-8.31;89.07
69624;BME280;56843;52.020;5.670;2022-12-15T01:01:58;100468.63;;;-8.33;88.94
69624;BME280;56843;52.020;5.670;2022-12-15T01:03:47;100469.63;;;-8.34;89.18
69624;BME280;56843;52.020;5.670;2022-12-15T01:05:36;100469.03;;;-8.36;88.95
69624;BME280;56843;52.020;5.670;2022-12-15T01:07:25;100466.66;;;-8.37;88.90
69624;BME280;56843;52.020;5.670;2022-12-15T01:09:14;100465.09;;;-8.38;89.32
69624;BME280;56843;52.020;5.670;2022-12-15T01:11:03;100474.63;;;-8.39;88.92
69624;BME280;56843;52.020;5.670;2022-12-15T01:12:52;100469.66;;;-8.40;89.11
69624;BME280;56843;52.020;5.670;2022-12-15T01:14:41;100465.88;;;-8.44;89.10
69624;BME280;56843;52.020;5.670;2022-12-15T01:16:31;100473.06;;;-8.46;89.03
69624;BME280;56843;52.020;5.670;2022-12-15T01:18:21;100478.69;;;-8.49;89.10
69624;BME280;56843;52.020;5.670;2022-12-15T01:20:10;100476.28;;;-8.51;89.22
69624;BME280;56843;52.020;5.670;2022-12-15T01:21:47;100472.13;;;-8.52;89.41
69624;BME280;56843;52.020;5.670;2022-12-15T01:23:18;100475.91;;;-8.54;89.13
69624;BME280;56843;52.020;5.670;2022-12-15T01:24:49;100476.13;;;-8.56;89.39
69624;BME280;56843;52.020;5.670;2022-12-15T01:26:19;100477.09;;;-8.57;89.42
69624;BME280;56843;52.020;5.670;2022-12-15T01:27:51;100482.50;;;-8.58;89.52
69624;BME280;56843;52.020;5.670;2022-12-15T01:29:22;100480.91;;;-8.59;89.41
69624;BME280;56843;52.020;5.670;2022-12-15T01:30:53;100485.28;;;-8.60;89.51
69624;BME280;56843;52.020;5.670;2022-12-15T01:32:23;100488.66;;;-8.59;89.49
69624;BME280;56843;52.020;5.670;2022-12-15T01:33:54;100483.69;;;-8.61;89.67
69624;BME280;56843;52.020;5.670;2022-12-15T01:35:24;100488.06;;;-8.61;89.46
69624;BME280;56843;52.020;5.670;2022-12-15T01:36:57;100497.63;;;-8.62;89.66
69624;BME280;56843;52.020;5.670;2022-12-15T01:38:28;100494.44;;;-8.64;89.74
69624;BME280;56843;52.020;5.670;2022-12-15T01:39:58;100493.88;;;-8.66;89.37
69624;BME280;56843;52.020;5.670;2022-12-15T01:41:47;100492.28;;;-8.67;89.54
69624;BME280;56843;52.020;5.670;2022-12-15T01:43:23;100489.88;;;-8.68;89.47
69624;BME280;56843;52.020;5.670;2022-12-15T01:47:10;100491.66;;;-8.69;89.83
69624;BME280;56843;52.020;5.670;2022-12-15T01:52:39;100488.91;;;-8.67;89.47
69624;BME280;56843;52.020;5.670;2022-12-15T01:54:14;100494.88;;;-8.67;89.63
69624;BME280;56843;52.020;5.670;2022-12-15T01:55:46;100497.66;;;-8.68;89.45
69624;BME280;56843;52.020;5.670;2022-12-15T01:57:25;100500.25;;;-8.68;89.48
69624;BME280;56843;52.020;5.670;2022-12-15T01:58:59;100513.19;;;-8.68;89.63
69624;BME280;56843;52.020;5.670;2022-12-15T02:03:08;100516.56;;;-8.68;89.61
69624;BME280;56843;52.020;5.670;2022-12-15T02:04:40;100517.38;;;-8.67;89.50
69624;BME280;56843;52.020;5.670;2022-12-15T02:06:11;100513.19;;;-8.68;89.59
69624;BME280;56843;52.020;5.670;2022-12-15T02:07:42;100519.75;;;-8.66;89.40
69624;BME280;56843;52.020;5.670;2022-12-15T02:09:12;100520.53;;;-8.65;89.61
69624;BME280;56843;52.020;5.670;2022-12-15T02:11:07;100522.13;;;-8.64;89.47
69624;BME280;56843;52.020;5.670;2022-12-15T02:13:14;100520.75;;;-8.60;89.61
69624;BME280;56843;52.020;5.670;2022-12-15T02:14:57;100518.53;;;-8.57;89.77
69624;BME280;56843;52.020;5.670;2022-12-15T02:21:30;100502.34;;;-8.46;89.28
69624;BME280;56843;52.020;5.670;2022-12-15T02:25:50;100503.72;;;-8.37;89.56
69624;BME280;56843;52.020;5.670;2022-12-15T02:27:48;100515.84;;;-8.37;89.54
69624;BME280;56843;52.020;5.670;2022-12-15T02:33:28;100506.69;;;-8.40;89.60
69624;BME280;56843;52.020;5.670;2022-12-15T02:36:37;100517.28;;;-8.41;89.28
69624;BME280;56843;52.020;5.670;2022-12-15T02:38:11;100513.88;;;-8.42;89.35
69624;BME280;56843;52.020;5.670;2022-12-15T02:39:42;100523.44;;;-8.42;89.26
69624;BME280;56843;52.020;5.670;2022-12-15T02:41:36;100512.31;;;-8.43;89.64
69624;BME280;56843;52.020;5.670;2022-12-15T02:43:09;100521.25;;;-8.39;89.77
69624;BME280;56843;52.020;5.670;2022-12-15T02:48:28;100515.06;;;-8.38;89.55
69624;BME280;56843;52.020;5.670;2022-12-15T02:53:54;100514.91;;;-8.43;89.67
69624;BME280;56843;52.020;5.670;2022-12-15T02:59:10;100522.81;;;-8.38;89.98
69624;BME280;56843;52.020;5.670;2022-12-15T03:00:49;100520.03;;;-8.36;90.00
69624;BME280;56843;52.020;5.670;2022-12-15T03:02:24;100521.41;;;-8.34;89.86
69624;BME280;56843;52.020;5.670;2022-12-15T03:03:59;100526.41;;;-8.32;89.72
69624;BME280;56843;52.020;5.670;2022-12-15T03:05:31;100520.78;;;-8.29;90.12
69624;BME280;56843;52.020;5.670;2022-12-15T03:07:08;100525.19;;;-8.30;90.09
69624;BME280;56843;52.020;5.670;2022-12-15T03:08:42;100519.22;;;-8.30;89.80
69624;BME280;56843;52.020;5.670;2022-12-15T03:10:13;100517.44;;;-8.30;90.03
69624;BME280;56843;52.020;5.670;2022-12-15T03:11:44;100509.06;;;-8.32;90.06
69624;BME280;56843;52.020;5.670;2022-12-15T03:13:14;100524.41;;;-8.30;89.95
69624;BME280;56843;52.020;5.670;2022-12-15T03:14:45;100522.59;;;-8.30;90.03
69624;BME280;56843;52.020;5.670;2022-12-15T03:16:15;100527.00;;;-8.30;90.03
69624;BME280;56843;52.020;5.670;2022-12-15T03:17:46;100533.94;;;-8.31;90.06
69624;BME280;56843;52.020;5.670;2022-12-15T03:19:17;100532.38;;;-8.32;89.98
69624;BME280;56843;52.020;5.670;2022-12-15T03:20:47;100535.16;;;-8.33;90.09
69624;BME280;56843;52.020;5.670;2022-12-15T03:22:18;100538.75;;;-8.34;90.14
69624;BME280;56843;52.020;5.670;2022-12-15T03:23:49;100543.94;;;-8.34;90.31
69624;BME280;56843;52.020;5.670;2022-12-15T03:25:19;100550.91;;;-8.35;90.04
69624;BME280;56843;52.020;5.670;2022-12-15T03:26:50;100554.69;;;-8.37;90.46
69624;BME280;56843;52.020;5.670;2022-12-15T03:28:21;100554.47;;;-8.36;90.49
69624;BME280;56843;52.020;5.670;2022-12-15T03:29:52;100554.47;;;-8.36;90.62
69624;BME280;56843;52.020;5.670;2022-12-15T03:31:23;100550.09;;;-8.35;90.53
69624;BME280;56843;52.020;5.670;2022-12-15T03:32:53;100552.91;;;-8.37;90.40
69624;BME280;56843;52.020;5.670;2022-12-15T03:34:24;100551.13;;;-8.36;90.69
69624;BME280;56843;52.020;5.670;2022-12-15T03:35:55;100550.53;;;-8.38;90.47
69624;BME280;56843;52.020;5.670;2022-12-15T03:37:25;100548.13;;;-8.40;90.38
69624;BME280;56843;52.020;5.670;2022-12-15T03:38:56;100556.69;;;-8.39;90.73
69624;BME280;56843;52.020;5.670;2022-12-15T03:40:27;100545.16;;;-8.43;90.73
69624;BME280;56843;52.020;5.670;2022-12-15T03:41:57;100547.16;;;-8.45;90.83
69624;BME280;56843;52.020;5.670;2022-12-15T03:43:27;100544.75;;;-8.47;90.64
69624;BME280;56843;52.020;5.670;2022-12-15T03:44:58;100551.16;;;-8.49;90.75
69624;BME280;56843;52.020;5.670;2022-12-15T03:46:28;100543.00;;;-8.53;90.65
69624;BME280;56843;52.020;5.670;2022-12-15T03:47:59;100545.00;;;-8.55;90.67
69624;BME280;56843;52.020;5.670;2022-12-15T03:49:30;100549.59;;;-8.57;90.70
69624;BME280;56843;52.020;5.670;2022-12-15T03:51:00;100550.56;;;-8.58;91.09
69624;BME280;56843;52.020;5.670;2022-12-15T03:52:31;100554.97;;;-8.58;90.97
69624;BME280;56843;52.020;5.670;2022-12-15T03:54:01;100560.16;;;-8.58;90.97
69624;BME280;56843;52.020;5.670;2022-12-15T03:55:32;100559.56;;;-8.60;91.08
69624;BME280;56843;52.020;5.670;2022-12-15T03:57:04;100553.00;;;-8.63;91.03
69624;BME280;56843;52.020;5.670;2022-12-15T03:58:36;100570.31;;;-8.63;90.75
69624;BME280;56843;52.020;5.670;2022-12-15T04:00:07;100568.72;;;-8.64;91.06
69624;BME280;56843;52.020;5.670;2022-12-15T04:01:45;100563.75;;;-8.66;90.88
69624;BME280;56843;52.020;5.670;2022-12-15T04:03:17;100567.94;;;-8.65;91.26
69624;BME280;56843;52.020;5.670;2022-12-15T04:04:47;100566.34;;;-8.66;90.93
69624;BME280;56843;52.020;5.670;2022-12-15T04:06:18;100560.56;;;-8.68;91.05
69624;BME280;56843;52.020;5.670;2022-12-15T04:07:48;100564.94;;;-8.68;91.04
69624;BME280;56843;52.020;5.670;2022-12-15T04:09:19;100565.97;;;-8.69;91.27
69624;BME280;56843;52.020;5.670;2022-12-15T04:10:49;100560.78;;;-8.69;91.25
69624;BME280;56843;52.020;5.670;2022-12-15T04:12:20;100560.56;;;-8.68;91.06
69624;BME280;56843;52.020;5.670;2022-12-15T04:13:50;100554.41;;;-8.67;91.17
69624;BME280;56843;52.020;5.670;2022-12-15T04:15:21;100553.97;;;-8.64;91.20
69624;BME280;56843;52.020;5.670;2022-12-15T04:16:51;100551.97;;;-8.62;91.02
69624;BME280;56843;52.020;5.670;2022-12-15T04:18:22;100558.75;;;-8.61;91.26
69624;BME280;56843;52.020;5.670;2022-12-15T04:19:52;100551.59;;;-8.59;91.20
69624;BME280;56843;52.020;5.670;2022-12-15T04:21:41;100537.63;;;-8.58;90.83
69624;BME280;56843;52.020;5.670;2022-12-15T04:23:12;100549.59;;;-8.57;91.13
69624;BME280;56843;52.020;5.670;2022-12-15T04:24:43;100544.41;;;-8.57;91.00
69624;BME280;56843;52.020;5.670;2022-12-15T04:26:32;100546.59;;;-8.54;90.91
69624;BME280;56843;52.020;5.670;2022-12-15T04:28:21;100542.19;;;-8.53;90.70
69624;BME280;56843;52.020;5.670;2022-12-15T04:30:10;100543.44;;;-8.56;90.96
69624;BME280;56843;52.020;5.670;2022-12-15T04:32:00;100541.59;;;-8.55;90.78
69624;BME280;56843;52.020;5.670;2022-12-15T04:33:52;100551.97;;;-8.55;90.75
69624;BME280;56843;52.020;5.670;2022-12-15T04:35:42;100553.97;;;-8.57;90.95
69624;BME280;56843;52.020;5.670;2022-12-15T04:37:32;100555.75;;;-8.58;90.96
69624;BME280;56843;52.020;5.670;2022-12-15T04:39:21;100555.75;;;-8.58;90.86
69624;BME280;56843;52.020;5.670;2022-12-15T04:41:12;100559.13;;;-8.57;90.85
69624;BME280;56843;52.020;5.670;2022-12-15T04:43:03;100564.13;;;-8.56;91.15
69624;BME280;56843;52.020;5.670;2022-12-15T04:44:55;100556.38;;;-8.56;90.99
69624;BME280;56843;52.020;5.670;2022-12-15T04:46:45;100553.34;;;-8.53;90.81
69624;BME280;56843;52.020;5.670;2022-12-15T04:48:34;100564.72;;;-8.54;90.92
69624;BME280;56843;52.020;5.670;2022-12-15T04:50:23;100555.94;;;-8.53;91.01
69624;BME280;56843;52.020;5.670;2022-12-15T04:52:12;100562.28;;;-8.49;90.89
69624;BME280;56843;52.020;5.670;2022-12-15T04:54:01;100564.88;;;-8.49;91.06
69624;BME280;56843;52.020;5.670;2022-12-15T04:55:50;100560.50;;;-8.48;90.75
69624;BME280;56843;52.020;5.670;2022-12-15T04:57:39;100567.28;;;-8.47;90.71
69624;BME280;56843;52.020;5.670;2022-12-15T04:59:28;100561.53;;;-8.49;91.12
69624;BME280;56843;52.020;5.670;2022-12-15T05:01:17;100554.53;;;-8.49;91.01
69624;BME280;56843;52.020;5.670;2022-12-15T05:03:07;100567.47;;;-8.49;91.03
69624;BME280;56843;52.020;5.670;2022-12-15T05:04:56;100567.47;;;-8.49;90.91
69624;BME280;56843;52.020;5.670;2022-12-15T05:06:49;100568.06;;;-8.47;90.86
69624;BME280;56843;52.020;5.670;2022-12-15T05:08:38;100562.88;;;-8.47;90.97
69624;BME280;56843;52.020;5.670;2022-12-15T05:10:27;100563.91;;;-8.48;90.71
69624;BME280;56843;52.020;5.670;2022-12-15T05:12:17;100564.69;;;-8.47;91.13
69624;BME280;56843;52.020;5.670;2022-12-15T05:14:06;100567.69;;;-8.50;90.77
69624;BME280;56843;52.020;5.670;2022-12-15T05:15:55;100569.91;;;-8.54;90.96
69624;BME280;56843;52.020;5.670;2022-12-15T05:17:44;100571.09;;;-8.56;91.06
69624;BME280;56843;52.020;5.670;2022-12-15T05:19:33;100570.28;;;-8.57;91.23
69624;BME280;56843;52.020;5.670;2022-12-15T05:21:22;100568.88;;;-8.53;91.29
69624;BME280;56843;52.020;5.670;2022-12-15T05:23:11;100577.66;;;-8.54;91.17
69624;BME280;56843;52.020;5.670;2022-12-15T05:25:00;100581.25;;;-8.55;91.19
69624;BME280;56843;52.020;5.670;2022-12-15T05:26:49;100573.88;;;-8.58;91.25
69624;BME280;56843;52.020;5.670;2022-12-15T05:28:38;100577.47;;;-8.59;91.04
69624;BME280;56843;52.020;5.670;2022-12-15T05:30:28;100580.28;;;-8.60;91.24
69624;BME280;56843;52.020;5.670;2022-12-15T05:32:17;100581.47;;;-8.63;90.97
69624;BME280;56843;52.020;5.670;2022-12-15T05:33:48;100585.84;;;-8.63;91.31
69624;BME280;56843;52.020;5.670;2022-12-15T05:35:18;100589.81;;;-8.61;91.43
69624;BME280;56843;52.020;5.670;2022-12-15T05:36:49;100581.25;;;-8.61;91.21
69624;BME280;56843;52.020;5.670;2022-12-15T05:38:20;100583.84;;;-8.61;91.12
69624;BME280;56843;52.020;5.670;2022-12-15T05:39:50;100587.03;;;-8.59;91.30
69624;BME280;56843;52.020;5.670;2022-12-15T05:41:21;100589.41;;;-8.58;91.36
69624;BME280;56843;52.020;5.670;2022-12-15T05:42:52;100586.81;;;-8.58;91.54
69624;BME280;56843;52.020;5.670;2022-12-15T05:44:24;100580.66;;;-8.57;91.41
69624;BME280;56843;52.020;5.670;2022-12-15T05:45:54;100588.22;;;-8.55;91.44
69624;BME280;56843;52.020;5.670;2022-12-15T05:47:25;100582.25;;;-8.56;91.61
69624;BME280;56843;52.020;5.670;2022-12-15T05:48:55;100585.44;;;-8.54;91.47
69624;BME280;56843;52.020;5.670;2022-12-15T05:50:26;100583.81;;;-8.55;91.61
69624;BME280;56843;52.020;5.670;2022-12-15T05:51:57;100589.81;;;-8.54;91.49
69624;BME280;56843;52.020;5.670;2022-12-15T05:53:27;100588.78;;;-8.53;91.50
69624;BME280;56843;52.020;5.670;2022-12-15T05:54:58;100584.22;;;-8.51;91.61
69624;BME280;56843;52.020;5.670;2022-12-15T05:56:28;100587.41;;;-8.49;91.68
69624;BME280;56843;52.020;5.670;2022-12-15T05:57:59;100589.00;;;-8.48;91.58
69624;BME280;56843;52.020;5.670;2022-12-15T05:59:29;100588.00;;;-8.47;91.57
69624;BME280;56843;52.020;5.670;2022-12-15T06:01:04;100588.59;;;-8.45;91.53
69624;BME280;56843;52.020;5.670;2022-12-15T06:02:35;100598.94;;;-8.45;91.43
69624;BME280;56843;52.020;5.670;2022-12-15T06:04:06;100597.16;;;-8.45;91.52
69624;BME280;56843;52.020;5.670;2022-12-15T06:05:38;100600.72;;;-8.46;91.62
69624;BME280;56843;52.020;5.670;2022-12-15T06:07:11;100612.50;;;-8.43;91.55
69624;BME280;56843;52.020;5.670;2022-12-15T06:08:44;100612.50;;;-8.43;91.69
69624;BME280;56843;52.020;5.670;2022-12-15T06:10:15;100625.66;;;-8.45;91.40
69624;BME280;56843;52.020;5.670;2022-12-15T06:11:46;100616.47;;;-8.47;91.75
69624;BME280;56843;52.020;5.670;2022-12-15T06:13:19;100619.25;;;-8.49;91.57
69624;BME280;56843;52.020;5.670;2022-12-15T06:14:50;100625.84;;;-8.53;91.59
69624;BME280;56843;52.020;5.670;2022-12-15T06:16:22;100622.44;;;-8.53;91.70
69624;BME280;56843;52.020;5.670;2022-12-15T06:17:54;100614.91;;;-8.55;91.59
69624;BME280;56843;52.020;5.670;2022-12-15T06:19:27;100612.91;;;-8.53;92.01
69624;BME280;56843;52.020;5.670;2022-12-15T06:21:00;100621.25;;;-8.51;91.70
69624;BME280;56843;52.020;5.670;2022-12-15T06:22:31;100625.44;;;-8.50;91.80
69624;BME280;56843;52.020;5.670;2022-12-15T06:24:04;100617.09;;;-8.52;92.06
69624;BME280;56843;52.020;5.670;2022-12-15T06:25:34;100619.69;;;-8.52;92.06
69624;BME280;56843;52.020;5.670;2022-12-15T06:27:05;100623.25;;;-8.53;91.88
69624;BME280;56843;52.020;5.670;2022-12-15T06:28:36;100622.44;;;-8.53;92.07
69624;BME280;56843;52.020;5.670;2022-12-15T06:30:07;100614.50;;;-8.52;92.21
69624;BME280;56843;52.020;5.670;2022-12-15T06:31:41;100620.66;;;-8.53;92.05
69624;BME280;56843;52.020;5.670;2022-12-15T06:33:14;100624.25;;;-8.54;92.00
69624;BME280;56843;52.020;5.670;2022-12-15T06:34:47;100621.09;;;-8.56;91.96
69624;BME280;56843;52.020;5.670;2022-12-15T06:36:18;100625.47;;;-8.56;91.90
69624;BME280;56843;52.020;5.670;2022-12-15T06:37:55;100627.25;;;-8.57;92.29
69624;BME280;56843;52.020;5.670;2022-12-15T06:39:30;100621.47;;;-8.59;91.86
69624;BME280;56843;52.020;5.670;2022-12-15T06:41:19;100620.69;;;-8.59;92.17
69624;BME280;56843;52.020;5.670;2022-12-15T06:42:55;100620.88;;;-8.61;91.88
69624;BME280;56843;52.020;5.670;2022-12-15T06:44:26;100622.09;;;-8.63;92.20
69624;BME280;56843;52.020;5.670;2022-12-15T06:46:10;100609.53;;;-8.66;92.02
69624;BME280;56843;52.020;5.670;2022-12-15T06:48:05;100613.31;;;-8.69;92.31
69624;BME280;56843;52.020;5.670;2022-12-15T06:49:39;100613.13;;;-8.67;92.30
69624;BME280;56843;52.020;5.670;2022-12-15T06:51:16;100610.72;;;-8.69;92.23
69624;BME280;56843;52.020;5.670;2022-12-15T06:52:54;100612.31;;;-8.61;92.46
69624;BME280;56843;52.020;5.670;2022-12-15T06:54:27;100616.09;;;-8.57;92.27
69624;BME280;56843;52.020;5.670;2022-12-15T06:55:59;100620.06;;;-8.55;92.30
69624;BME280;56843;52.020;5.670;2022-12-15T06:57:31;100618.06;;;-8.53;92.16
69624;BME280;56843;52.020;5.670;2022-12-15T06:59:03;100622.28;;;-8.52;92.36
69624;BME280;56843;52.020;5.670;2022-12-15T07:00:34;100628.03;;;-8.50;92.11
69624;BME280;56843;52.020;5.670;2022-12-15T07:02:15;100624.66;;;-8.50;92.36
69624;BME280;56843;52.020;5.670;2022-12-15T07:03:47;100633.22;;;-8.50;92.36
69624;BME280;56843;52.020;5.670;2022-12-15T07:05:19;100628.03;;;-8.50;92.16
69624;BME280;56843;52.020;5.670;2022-12-15T07:06:59;100626.03;;;-8.48;92.22
69624;BME280;56843;52.020;5.670;2022-12-15T07:08:30;100633.00;;;-8.48;92.30
69624;BME280;56843;52.020;5.670;2022-12-15T07:10:03;100627.63;;;-8.47;91.99
69624;BME280;56843;52.020;5.670;2022-12-15T07:11:34;100637.97;;;-8.47;92.04
69624;BME280;56843;52.020;5.670;2022-12-15T07:13:15;100636.97;;;-8.46;92.09
69624;BME280;56843;52.020;5.670;2022-12-15T07:14:46;100651.53;;;-8.45;92.01
69624;BME280;56843;52.020;5.670;2022-12-15T07:16:19;100647.34;;;-8.46;92.25
69624;BME280;56843;52.020;5.670;2022-12-15T07:17:53;100641.19;;;-8.45;92.23
69624;BME280;56843;52.020;5.670;2022-12-15T07:19:25;100632.41;;;-8.44;92.35
69624;BME280;56843;52.020;5.670;2022-12-15T07:21:01;100632.00;;;-8.41;92.30
69624;BME280;56843;52.020;5.670;2022-12-15T07:22:32;100632.59;;;-8.39;92.77
69624;BME280;56843;52.020;5.670;2022-12-15T07:24:03;100628.22;;;-8.38;92.49
69624;BME280;56843;52.020;5.670;2022-12-15T07:25:36;100634.38;;;-8.39;92.45
69624;BME280;56843;52.020;5.670;2022-12-15T07:27:14;100644.75;;;-8.39;92.24
69624;BME280;56843;52.020;5.670;2022-12-15T07:28:45;100643.94;;;-8.40;92.38
69624;BME280;56843;52.020;5.670;2022-12-15T07:30:17;100657.69;;;-8.39;92.55
69624;BME280;56843;52.020;5.670;2022-12-15T07:31:47;100652.13;;;-8.43;92.17
69624;BME280;56843;52.020;5.670;2022-12-15T07:33:18;100647.94;;;-8.44;92.61
69624;BME280;56843;52.020;5.670;2022-12-15T07:34:51;100657.91;;;-8.41;92.43
69624;BME280;56843;52.020;5.670;2022-12-15T07:36:22;100657.91;;;-8.41;92.45
69624;BME280;56843;52.020;5.670;2022-12-15T07:37:53;100652.13;;;-8.43;92.35
69624;BME280;56843;52.020;5.670;2022-12-15T07:39:23;100659.91;;;-8.43;92.67
69624;BME280;56843;52.020;5.670;2022-12-15T07:41:01;100659.69;;;-8.41;92.57
69624;BME280;56843;52.020;5.670;2022-12-15T07:42:32;100664.88;;;-8.41;92.42
69624;BME280;56843;52.020;5.670;2022-12-15T07:44:03;100666.25;;;-8.39;92.35
69624;BME280;56843;52.020;5.670;2022-12-15T07:45:33;100660.28;;;-8.39;92.47
69624;BME280;56843;52.020;5.670;2022-12-15T07:47:04;100665.84;;;-8.36;92.49
69624;BME280;56843;52.020;5.670;2022-12-15T07:48:34;100667.22;;;-8.33;92.51
69624;BME280;56843;52.020;5.670;2022-12-15T07:50:06;100661.88;;;-8.32;92.47
69624;BME280;56843;52.020;5.670;2022-12-15T07:51:36;100661.44;;;-8.29;92.38
69624;BME280;56843;52.020;5.670;2022-12-15T07:53:07;100659.25;;;-8.25;92.59
69624;BME280;56843;52.020;5.670;2022-12-15T07:54:37;100661.84;;;-8.25;92.52
69624;BME280;56843;52.020;5.670;2022-12-15T07:56:08;100660.63;;;-8.23;92.41
69624;BME280;56843;52.020;5.670;2022-12-15T07:57:42;100654.47;;;-8.21;92.61
69624;BME280;56843;52.020;5.670;2022-12-15T07:59:12;100658.44;;;-8.19;92.69
69624;BME280;56843;52.020;5.670;2022-12-15T08:00:43;100663.41;;;-8.17;92.61
69624;BME280;56843;52.020;5.670;2022-12-15T08:02:14;100662.22;;;-8.15;92.42
69624;BME280;56843;52.020;5.670;2022-12-15T08:03:45;100661.81;;;-8.12;92.77
69624;BME280;56843;52.020;5.670;2022-12-15T08:05:15;100661.38;;;-8.09;92.34
69624;BME280;56843;52.020;5.670;2022-12-15T08:06:49;100669.75;;;-8.07;92.46
69624;BME280;56843;52.020;5.670;2022-12-15T08:08:21;100677.34;;;-8.05;92.71
69624;BME280;56843;52.020;5.670;2022-12-15T08:09:52;100675.94;;;-8.01;92.60
69624;BME280;56843;52.020;5.670;2022-12-15T08:11:23;100681.47;;;-7.98;92.39
69624;BME280;56843;52.020;5.670;2022-12-15T08:12:55;100678.88;;;-7.98;92.43
69624;BME280;56843;52.020;5.670;2022-12-15T08:14:25;100682.06;;;-7.96;92.40
69624;BME280;56843;52.020;5.670;2022-12-15T08:15:58;100693.06;;;-7.94;92.73
69624;BME280;56843;52.020;5.670;2022-12-15T08:17:28;100685.06;;;-7.92;92.46
69624;BME280;56843;52.020;5.670;2022-12-15T08:18:59;100693.44;;;-7.90;92.37
69624;BME280;56843;52.020;5.670;2022-12-15T08:20:30;100688.84;;;-7.88;92.39
69624;BME280;56843;52.020;5.670;2022-12-15T08:22:00;100695.41;;;-7.86;92.29
69624;BME280;56843;52.020;5.670;2022-12-15T08:23:31;100693.63;;;-7.85;92.30
69624;BME280;56843;52.020;5.670;2022-12-15T08:25:02;100699.19;;;-7.82;92.59
69624;BME280;56843;52.020;5.670;2022-12-15T08:26:33;100695.38;;;-7.79;92.47
69624;BME280;56843;52.020;5.670;2022-12-15T08:28:03;100701.97;;;-7.77;92.29
69624;BME280;56843;52.020;5.670;2022-12-15T08:29:34;100696.56;;;-7.75;92.28
69624;BME280;56843;52.020;5.670;2022-12-15T08:31:10;100696.16;;;-7.72;92.49
69624;BME280;56843;52.020;5.670;2022-12-15T08:32:41;100698.31;;;-7.69;92.54
69624;BME280;56843;52.020;5.670;2022-12-15T08:34:12;100700.13;;;-7.63;92.05
69624;BME280;56843;52.020;5.670;2022-12-15T08:35:43;100695.88;;;-7.58;92.40
69624;BME280;56843;52.020;5.670;2022-12-15T08:37:14;100702.47;;;-7.55;92.18
69624;BME280;56843;52.020;5.670;2022-12-15T08:38:45;100695.84;;;-7.51;92.39
69624;BME280;56843;52.020;5.670;2022-12-15T08:40:19;100697.25;;;-7.48;92.44
69624;BME280;56843;52.020;5.670;2022-12-15T08:41:50;100702.22;;;-7.47;92.36
69624;BME280;56843;52.020;5.670;2022-12-15T08:43:20;100701.41;;;-7.41;92.43
69624;BME280;56843;52.020;5.670;2022-12-15T08:44:51;100701.56;;;-7.36;92.42
69624;BME280;56843;52.020;5.670;2022-12-15T08:46:24;100699.31;;;-7.26;92.77
69624;BME280;56843;52.020;5.670;2022-12-15T08:47:55;100698.81;;;-7.10;92.29
69624;BME280;56843;52.020;5.670;2022-12-15T08:49:25;100699.09;;;-6.93;92.36
69624;BME280;56843;52.020;5.670;2022-12-15T08:50:57;100701.94;;;-6.70;92.19
69624;BME280;56843;52.020;5.670;2022-12-15T08:52:28;100711.50;;;-6.46;92.37
69624;BME280;56843;52.020;5.670;2022-12-15T08:53:59;100713.28;;;-6.22;91.59
69624;BME280;56843;52.020;5.670;2022-12-15T08:55:32;100711.41;;;-5.97;91.54
69624;BME280;56843;52.020;5.670;2022-12-15T08:57:04;100712.94;;;-5.71;91.15
69624;BME280;56843;52.020;5.670;2022-12-15T08:58:34;100720.66;;;-5.46;90.98